Santa Paula, CA (93060)

4:39 PM PST on February 11, 2016 (GMT -0800)
Santa Paula Canyon - Bridge Rd | | Change Station
CLOSE
Current Station
Personal Weather Station
Location: Santa Paula, CA
Elevation: 570 ft
Nearby Weather Stations

Elev 570 ft 34.39 °N, 119.07 °W | Updated 5 seconds ago

Clear
Clear
78.5 °F
Feels Like 78 °F
N
0.0
Wind Variable Wind from South
Gusts 0.0 mph

Today
High -- | Low -- °F
--% Chance of Precip.
Yesterday
High -- | Low -- °F
Precip. -- in
Pressure 30.09 in
Visibility 10.0 miles
Clouds Clear
Heat Index 78 °F
Dew Point 45 °F
Humidity 31%
Rainfall 0.00 in
Snow Depth Not available.
6:45 AM 5:35 PM
Waxing Crescent, 15% visible
METAR KCMA 112355Z 28008KT 10SM CLR 25/04 A3007 RMK AO2 SLP189 T02500039 10278 20239 55001
Pressure 30.09 in
Visibility 10.0 miles
Clouds Clear
Heat Index 78 °F
Dew Point 45 °F
Humidity 31%
Rainfall 0.00 in
Snow Depth Not available.
6:45 AM 5:35 PM
Waxing Crescent, 15% visible
METAR KCMA 112355Z 28008KT 10SM CLR 25/04 A3007 RMK AO2 SLP189 T02500039 10278 20239 55001

10-Day Weather Forecast

Almanac

Astronomy

Feb. 11, 2016 Rise Set
Actual Time
Civil Twilight
Nautical Twilight
Astronomical Twilight
Moon
Length of Visible Light
Length of Day
Tomorrow will be .
, % of the Moon is Illuminated

Today's Extremes

State Highs State Lows

Community

WunderPhotos

Upload Photos

1,892,194 photos uploaded!

WunderBlog® & News

Nearby

Air Quality

  Air Quality AQ Index Pollutant
Not available.

Snow Depth

Station Depth Elevation

Earthquake Activity

City Distance Mag. Time & Date
Minimum magnitude displayed is 2.5.

Coastal Water Temperatures

Place Temperature

Stations

Nearby Weather Stations

Station Location Temp. Windchill Dew Point Humidity Wind Precip. Elev Updated Type
                   

Watches & Warnings

There are currently no watches in effect.